Columbus, Ohio
Traffic Map
Current Weather Conditions
Columbus, Ohio
Few Clouds
Few Clouds
21°
Feels Like: 21°
Wind Chill: 21° Ceiling: Unl
Heat Index: 21° Visibility: 10mi
Dew Point: Wind: 6mph
Humidity: 45% Direction: 70° (ENE)
Pressure: 30.08in Gusts: 0mph
Raw Report DataKCMH 182251Z 07005KT 10SM FEW060 21/08 A3008 RMK AO2 SLP183 T02060083
Traffic Incident Summary
Active as of:
Severity:
Category:
InformationThere was an issue retrieving the traffic information for this location. Please try a different location or try again shortly.
Advertisements
Track Severe Weather on mobile